Terminal Aerodrome Forecast
Issued by NWS

Home | Current Version | Previous Version | Text Only | Print | Product List | Glossary On
Versions: 1 2 3 4 5 6 7 8 9 10 11 12 13 14 15
516
FTUS43 KICT 211720
TAFSLN
TAF
KSLN 211720Z 2118/2218 19015G22KT P6SM SKC
     FM212000 20015G23KT P6SM SCT060
     FM220000 18013KT P6SM SKC
     FM220500 20013KT P6SM SKC
     FM220800 19013KT P6SM SKC WS020/22040KT
     FM221200 21010KT P6SM SKC=

USA.gov is the U.S. government's official web portal to all federal, state and local government web resources and services.